»·PEaware :: N737AZ KRAL-KEMT

N737AZ :: KRAL-KEMT

FLIGHT INFORMATION

Flight Status: Arrived
Operator: Privately registered:
United States
More flights under this callsign
Pilot: Ronald A. (20436)
Aircraft: CESSNA 172 SKYHAWK
(C172)
More flights by this aircraft type
Origin: KRAL Riverside Mun
United States
Destination: KEMT El Monte
United States
More flights between these airports :: More routes between these airports
Route: KCNO
File this flight plan on PilotEdge
Remarks: Request early contact with Chino Tower for VFR Transition
Altitude:
(Current/Filed)
2,500ft
Speed:
(Current/Filed)
110kts
Departed: 02-Nov-19 09:34 AM
Arrived: 02-Nov-19 09:55 AM
Distance/Time
Traveled:
30nm/0:20
Distance/Time
To Go:
Arrived

Flight Plot

Page will automatically refresh every two minutes.

Flight plan parsing failed; only flown route is shown


Map Options




Map Legend


Flown Route
Filed Route
Departure Airport
Arrival Airport
Navaid (VOR, NDB)
Fix

Horizontal Profiles

Position Reports

Time Latitude Longitude Heading Altitude Ground
Speed
02-Nov-19 09:00 33.950902 -117.447331 10 820ft 0kts
02-Nov-19 09:01 33.950902 -117.447331 10 820ft 0kts
02-Nov-19 09:02 33.950902 -117.447331 10 820ft 0kts
02-Nov-19 09:03 33.950902 -117.447331 10 820ft 0kts
02-Nov-19 09:04 33.950902 -117.447331 10 820ft 0kts
02-Nov-19 09:05 33.950902 -117.447331 10 820ft 0kts
02-Nov-19 09:06 33.950902 -117.447331 10 820ft 0kts
02-Nov-19 09:07 33.950902 -117.447331 10 820ft 0kts
02-Nov-19 09:08 33.950902 -117.447331 10 820ft 0kts
02-Nov-19 09:09 33.950902 -117.447331 10 820ft 0kts
02-Nov-19 09:10 33.950902 -117.447331 10 820ft 0kts
02-Nov-19 09:11 33.950902 -117.447331 10 820ft 0kts
02-Nov-19 09:12 33.950902 -117.447331 10 820ft 0kts
02-Nov-19 09:13 33.950902 -117.447331 10 820ft 0kts
02-Nov-19 09:14 33.950902 -117.447331 10 820ft 0kts
02-Nov-19 09:15 33.950902 -117.447331 10 820ft 0kts
02-Nov-19 09:16 33.950902 -117.447331 10 820ft 0kts
02-Nov-19 09:17 33.950902 -117.447331 10 820ft 0kts
02-Nov-19 09:18 33.950902 -117.447331 10 820ft 0kts
02-Nov-19 09:19 33.950902 -117.447331 10 820ft 0kts
02-Nov-19 09:20 33.950902 -117.447331 10 820ft 0kts
02-Nov-19 09:21 33.950902 -117.447331 10 820ft 0kts
02-Nov-19 09:22 33.950902 -117.447331 10 820ft 0kts
02-Nov-19 09:23 33.950902 -117.447331 10 820ft 0kts
02-Nov-19 09:24 33.950902 -117.447331 10 820ft 0kts
02-Nov-19 09:25 33.950902 -117.447331 10 820ft 0kts
02-Nov-19 09:26 33.951013 -117.447477 292 820ft 2kts
02-Nov-19 09:27 33.952309 -117.447845 91 820ft 6kts
02-Nov-19 09:28 33.951834 -117.445336 101 820ft 8kts
02-Nov-19 09:29 33.951065 -117.441360 101 820ft 15kts
02-Nov-19 09:30 33.950314 -117.437435 102 820ft 8kts
02-Nov-19 09:31 33.949947 -117.434998 29 820ft 0kts
02-Nov-19 09:32 33.949947 -117.434998 29 820ft 0kts
02-Nov-19 09:33 33.951096 -117.437320 282 820ft 60kts
02-Nov-19 09:34 33.954583 -117.464375 277 1858ft 77kts
02-Nov-19 09:35 33.957594 -117.492482 279 2516ft 109kts
02-Nov-19 09:36 33.962225 -117.531366 279 2505ft 116kts
02-Nov-19 09:37 33.947876 -117.560933 189 2505ft 117kts
02-Nov-19 09:38 33.915516 -117.563958 198 2503ft 117kts
02-Nov-19 09:39 33.914960 -117.595734 308 2510ft 113kts
02-Nov-19 09:40 33.934589 -117.625937 308 2505ft 114kts
02-Nov-19 09:41 33.954080 -117.655944 309 2502ft 113kts
02-Nov-19 09:42 33.973437 -117.685721 307 2500ft 111kts
02-Nov-19 09:43 33.984156 -117.720354 280 2499ft 111kts
02-Nov-19 09:44 33.990977 -117.756561 299 2499ft 111kts
02-Nov-19 09:46 34.012499 -117.783390 303 2498ft 111kts
02-Nov-19 09:47 34.025194 -117.817311 289 2499ft 111kts
02-Nov-19 09:48 34.035342 -117.852828 288 2501ft 112kts
02-Nov-19 09:49 34.044785 -117.886622 288 2378ft 104kts
02-Nov-19 09:50 34.054150 -117.920232 288 2105ft 111kts
02-Nov-19 09:51 34.064094 -117.955380 288 1509ft 104kts
02-Nov-19 09:52 34.074099 -117.985438 310 1270ft 92kts
02-Nov-19 09:53 34.092030 -118.004271 314 1297ft 72kts
02-Nov-19 09:54 34.096715 -118.026915 245 702ft 65kts
02-Nov-19 09:55 34.085431 -118.034751 112 299ft 0kts
02-Nov-19 09:56 34.085339 -118.034278 71 299ft 10kts

Navigation Log

Ident Type
Flight plan parsing failed, navigation log unavailable